sensor_id;sensor_type;location;lat;lon;timestamp;temperature;humidity
23147;DHT22;11742;53.532;-1.478;2022-10-16T00:00:28;15.40;65.50
23147;DHT22;11742;53.532;-1.478;2022-10-16T00:02:54;15.40;65.60
23147;DHT22;11742;53.532;-1.478;2022-10-16T00:05:20;15.40;65.60
23147;DHT22;11742;53.532;-1.478;2022-10-16T00:07:46;15.40;65.60
23147;DHT22;11742;53.532;-1.478;2022-10-16T00:10:12;15.40;65.60
23147;DHT22;11742;53.532;-1.478;2022-10-16T00:12:37;15.40;65.60
23147;DHT22;11742;53.532;-1.478;2022-10-16T00:15:04;15.40;65.60
23147;DHT22;11742;53.532;-1.478;2022-10-16T00:17:29;15.40;65.60
23147;DHT22;11742;53.532;-1.478;2022-10-16T00:19:55;15.40;65.60
23147;DHT22;11742;53.532;-1.478;2022-10-16T00:22:22;15.40;65.60
23147;DHT22;11742;53.532;-1.478;2022-10-16T00:24:47;15.40;65.60
23147;DHT22;11742;53.532;-1.478;2022-10-16T00:27:13;15.30;65.60
23147;DHT22;11742;53.532;-1.478;2022-10-16T00:29:39;15.30;65.70
23147;DHT22;11742;53.532;-1.478;2022-10-16T00:32:04;15.30;65.70
23147;DHT22;11742;53.532;-1.478;2022-10-16T00:34:30;15.30;65.70
23147;DHT22;11742;53.532;-1.478;2022-10-16T00:36:56;15.30;65.70
23147;DHT22;11742;53.532;-1.478;2022-10-16T00:39:21;15.30;65.70
23147;DHT22;11742;53.532;-1.478;2022-10-16T00:41:47;15.30;65.70
23147;DHT22;11742;53.532;-1.478;2022-10-16T00:44:43;15.20;65.70
23147;DHT22;11742;53.532;-1.478;2022-10-16T00:47:18;15.30;65.70
23147;DHT22;11742;53.532;-1.478;2022-10-16T00:49:45;15.20;65.70
23147;DHT22;11742;53.532;-1.478;2022-10-16T00:52:12;15.20;65.70
23147;DHT22;11742;53.532;-1.478;2022-10-16T00:54:38;15.20;65.70
23147;DHT22;11742;53.532;-1.478;2022-10-16T00:57:05;15.20;65.70
23147;DHT22;11742;53.532;-1.478;2022-10-16T00:59:37;15.20;65.70
23147;DHT22;11742;53.532;-1.478;2022-10-16T01:02:06;15.20;65.80
23147;DHT22;11742;53.532;-1.478;2022-10-16T01:04:39;15.20;65.80
23147;DHT22;11742;53.532;-1.478;2022-10-16T01:07:11;15.20;65.80
23147;DHT22;11742;53.532;-1.478;2022-10-16T01:09:55;15.20;65.80
23147;DHT22;11742;53.532;-1.478;2022-10-16T01:12:43;15.10;65.80
23147;DHT22;11742;53.532;-1.478;2022-10-16T01:15:33;15.10;65.70
23147;DHT22;11742;53.532;-1.478;2022-10-16T01:18:11;15.20;65.80
23147;DHT22;11742;53.532;-1.478;2022-10-16T01:20:46;15.10;65.80
23147;DHT22;11742;53.532;-1.478;2022-10-16T01:23:24;15.10;65.80
23147;DHT22;11742;53.532;-1.478;2022-10-16T01:26:24;15.10;65.80
23147;DHT22;11742;53.532;-1.478;2022-10-16T01:28:58;15.10;65.90
23147;DHT22;11742;53.532;-1.478;2022-10-16T01:31:30;15.10;65.90
23147;DHT22;11742;53.532;-1.478;2022-10-16T01:34:14;15.10;65.90
23147;DHT22;11742;53.532;-1.478;2022-10-16T01:36:56;15.10;65.90
23147;DHT22;11742;53.532;-1.478;2022-10-16T01:39:30;15.10;65.90
23147;DHT22;11742;53.532;-1.478;2022-10-16T01:42:03;15.10;65.90
23147;DHT22;11742;53.532;-1.478;2022-10-16T01:44:32;15.00;66.00
23147;DHT22;11742;53.532;-1.478;2022-10-16T01:46:59;15.00;65.80
23147;DHT22;11742;53.532;-1.478;2022-10-16T01:49:29;15.00;65.80
23147;DHT22;11742;53.532;-1.478;2022-10-16T01:51:59;15.00;65.80
23147;DHT22;11742;53.532;-1.478;2022-10-16T01:54:31;15.00;65.90
23147;DHT22;11742;53.532;-1.478;2022-10-16T01:56:58;15.00;65.90
23147;DHT22;11742;53.532;-1.478;2022-10-16T01:59:26;15.00;65.90
23147;DHT22;11742;53.532;-1.478;2022-10-16T02:01:58;15.00;65.90
23147;DHT22;11742;53.532;-1.478;2022-10-16T02:04:29;15.00;65.90
23147;DHT22;11742;53.532;-1.478;2022-10-16T02:06:57;15.00;65.90
23147;DHT22;11742;53.532;-1.478;2022-10-16T02:09:22;15.00;65.90
23147;DHT22;11742;53.532;-1.478;2022-10-16T02:11:50;15.00;66.00
23147;DHT22;11742;53.532;-1.478;2022-10-16T02:14:19;15.00;65.90
23147;DHT22;11742;53.532;-1.478;2022-10-16T02:16:46;15.00;65.90
23147;DHT22;11742;53.532;-1.478;2022-10-16T02:19:15;15.00;66.00
23147;DHT22;11742;53.532;-1.478;2022-10-16T02:22:00;14.90;65.90
23147;DHT22;11742;53.532;-1.478;2022-10-16T02:24:47;15.00;65.90
23147;DHT22;11742;53.532;-1.478;2022-10-16T02:29:47;15.00;66.00
23147;DHT22;11742;53.532;-1.478;2022-10-16T02:32:21;14.90;65.90
23147;DHT22;11742;53.532;-1.478;2022-10-16T02:34:49;15.00;66.00
23147;DHT22;11742;53.532;-1.478;2022-10-16T02:37:17;14.90;65.90
23147;DHT22;11742;53.532;-1.478;2022-10-16T02:39:43;14.90;65.90
23147;DHT22;11742;53.532;-1.478;2022-10-16T02:42:13;14.90;65.90
23147;DHT22;11742;53.532;-1.478;2022-10-16T02:44:39;14.90;65.90
23147;DHT22;11742;53.532;-1.478;2022-10-16T02:47:05;14.90;65.90
23147;DHT22;11742;53.532;-1.478;2022-10-16T02:49:31;14.90;65.90
23147;DHT22;11742;53.532;-1.478;2022-10-16T02:51:57;14.90;66.00
23147;DHT22;11742;53.532;-1.478;2022-10-16T02:54:22;14.90;65.90
23147;DHT22;11742;53.532;-1.478;2022-10-16T02:56:49;14.90;66.00
23147;DHT22;11742;53.532;-1.478;2022-10-16T02:59:15;14.90;66.00
23147;DHT22;11742;53.532;-1.478;2022-10-16T03:01:42;14.80;65.90
23147;DHT22;11742;53.532;-1.478;2022-10-16T03:04:07;14.80;65.90
23147;DHT22;11742;53.532;-1.478;2022-10-16T03:06:34;14.90;66.00
23147;DHT22;11742;53.532;-1.478;2022-10-16T03:08:59;14.90;66.00
23147;DHT22;11742;53.532;-1.478;2022-10-16T03:11:25;14.80;66.00
23147;DHT22;11742;53.532;-1.478;2022-10-16T03:13:52;14.80;66.00
23147;DHT22;11742;53.532;-1.478;2022-10-16T03:16:17;14.80;66.00
23147;DHT22;11742;53.532;-1.478;2022-10-16T03:18:43;14.80;65.90
23147;DHT22;11742;53.532;-1.478;2022-10-16T03:21:09;14.80;66.00
23147;DHT22;11742;53.532;-1.478;2022-10-16T03:23:34;14.80;66.00
23147;DHT22;11742;53.532;-1.478;2022-10-16T03:26:00;14.80;66.00
23147;DHT22;11742;53.532;-1.478;2022-10-16T03:28:25;14.80;66.00
23147;DHT22;11742;53.532;-1.478;2022-10-16T03:30:51;14.80;66.80
23147;DHT22;11742;53.532;-1.478;2022-10-16T03:33:17;14.80;66.00
23147;DHT22;11742;53.532;-1.478;2022-10-16T03:35:42;14.80;66.00
23147;DHT22;11742;53.532;-1.478;2022-10-16T03:38:15;14.80;66.00
23147;DHT22;11742;53.532;-1.478;2022-10-16T03:40:41;14.80;66.00
23147;DHT22;11742;53.532;-1.478;2022-10-16T03:43:07;14.80;66.00
23147;DHT22;11742;53.532;-1.478;2022-10-16T03:45:32;14.70;65.90
23147;DHT22;11742;53.532;-1.478;2022-10-16T03:47:58;14.80;66.00
23147;DHT22;11742;53.532;-1.478;2022-10-16T03:50:23;14.80;66.00
23147;DHT22;11742;53.532;-1.478;2022-10-16T03:52:49;14.70;66.00
23147;DHT22;11742;53.532;-1.478;2022-10-16T03:55:15;14.70;66.00
23147;DHT22;11742;53.532;-1.478;2022-10-16T03:57:40;14.70;66.00
23147;DHT22;11742;53.532;-1.478;2022-10-16T04:00:06;14.70;66.00
23147;DHT22;11742;53.532;-1.478;2022-10-16T04:02:32;14.70;66.00
23147;DHT22;11742;53.532;-1.478;2022-10-16T04:04:58;14.70;66.00
23147;DHT22;11742;53.532;-1.478;2022-10-16T04:07:24;14.70;66.00
23147;DHT22;11742;53.532;-1.478;2022-10-16T04:09:49;14.70;66.10
23147;DHT22;11742;53.532;-1.478;2022-10-16T04:12:17;14.70;66.00
23147;DHT22;11742;53.532;-1.478;2022-10-16T04:14:43;14.70;66.00
23147;DHT22;11742;53.532;-1.478;2022-10-16T04:17:08;14.70;66.00
23147;DHT22;11742;53.532;-1.478;2022-10-16T04:19:34;14.60;66.00
23147;DHT22;11742;53.532;-1.478;2022-10-16T04:21:59;14.60;65.90
23147;DHT22;11742;53.532;-1.478;2022-10-16T04:24:25;14.60;65.90
23147;DHT22;11742;53.532;-1.478;2022-10-16T04:26:51;14.60;66.00
23147;DHT22;11742;53.532;-1.478;2022-10-16T04:29:16;14.60;65.90
23147;DHT22;11742;53.532;-1.478;2022-10-16T04:31:42;14.60;66.00
23147;DHT22;11742;53.532;-1.478;2022-10-16T04:34:07;14.60;65.90
23147;DHT22;11742;53.532;-1.478;2022-10-16T04:36:33;14.60;65.90
23147;DHT22;11742;53.532;-1.478;2022-10-16T04:38:59;14.60;66.80
23147;DHT22;11742;53.532;-1.478;2022-10-16T04:41:24;14.50;65.90
23147;DHT22;11742;53.532;-1.478;2022-10-16T04:43:50;14.60;66.00
23147;DHT22;11742;53.532;-1.478;2022-10-16T04:46:16;14.60;65.90
23147;DHT22;11742;53.532;-1.478;2022-10-16T04:48:41;14.50;65.90
23147;DHT22;11742;53.532;-1.478;2022-10-16T04:51:07;14.50;65.80
23147;DHT22;11742;53.532;-1.478;2022-10-16T04:53:33;14.50;65.80
23147;DHT22;11742;53.532;-1.478;2022-10-16T04:55:59;14.50;65.90
23147;DHT22;11742;53.532;-1.478;2022-10-16T04:58:25;14.50;65.90
23147;DHT22;11742;53.532;-1.478;2022-10-16T05:00:50;14.50;65.80
23147;DHT22;11742;53.532;-1.478;2022-10-16T05:03:16;14.50;65.80
23147;DHT22;11742;53.532;-1.478;2022-10-16T05:05:43;14.50;65.80
23147;DHT22;11742;53.532;-1.478;2022-10-16T05:08:10;14.40;65.80
23147;DHT22;11742;53.532;-1.478;2022-10-16T05:10:35;14.50;65.90
23147;DHT22;11742;53.532;-1.478;2022-10-16T05:13:01;14.50;65.80
23147;DHT22;11742;53.532;-1.478;2022-10-16T05:15:27;14.40;65.80
23147;DHT22;11742;53.532;-1.478;2022-10-16T05:17:53;14.40;65.80
23147;DHT22;11742;53.532;-1.478;2022-10-16T05:20:19;14.40;65.80
23147;DHT22;11742;53.532;-1.478;2022-10-16T05:22:45;14.40;65.70
23147;DHT22;11742;53.532;-1.478;2022-10-16T05:25:10;14.40;65.80
23147;DHT22;11742;53.532;-1.478;2022-10-16T05:27:36;14.40;65.80
23147;DHT22;11742;53.532;-1.478;2022-10-16T05:30:02;14.30;65.70
23147;DHT22;11742;53.532;-1.478;2022-10-16T05:32:28;14.40;65.80
23147;DHT22;11742;53.532;-1.478;2022-10-16T05:34:53;14.30;65.70
23147;DHT22;11742;53.532;-1.478;2022-10-16T05:37:19;14.30;65.80
23147;DHT22;11742;53.532;-1.478;2022-10-16T05:39:45;14.30;65.70
23147;DHT22;11742;53.532;-1.478;2022-10-16T05:42:10;14.30;65.80
23147;DHT22;11742;53.532;-1.478;2022-10-16T05:44:36;14.30;65.80
23147;DHT22;11742;53.532;-1.478;2022-10-16T05:47:01;14.30;65.70
23147;DHT22;11742;53.532;-1.478;2022-10-16T05:49:27;14.30;65.80
23147;DHT22;11742;53.532;-1.478;2022-10-16T05:51:53;14.20;65.70
23147;DHT22;11742;53.532;-1.478;2022-10-16T05:54:18;14.20;65.70
23147;DHT22;11742;53.532;-1.478;2022-10-16T05:56:44;14.20;65.70
23147;DHT22;11742;53.532;-1.478;2022-10-16T05:59:10;14.20;65.70
23147;DHT22;11742;53.532;-1.478;2022-10-16T06:01:35;14.20;65.70
23147;DHT22;11742;53.532;-1.478;2022-10-16T06:04:01;14.20;65.70
23147;DHT22;11742;53.532;-1.478;2022-10-16T06:06:28;14.20;65.70
23147;DHT22;11742;53.532;-1.478;2022-10-16T06:08:55;14.20;65.70
23147;DHT22;11742;53.532;-1.478;2022-10-16T06:11:24;14.20;65.70
23147;DHT22;11742;53.532;-1.478;2022-10-16T06:13:55;14.10;65.60
23147;DHT22;11742;53.532;-1.478;2022-10-16T06:16:22;14.10;65.60
23147;DHT22;11742;53.532;-1.478;2022-10-16T06:18:51;14.10;65.60
23147;DHT22;11742;53.532;-1.478;2022-10-16T06:21:19;14.10;65.60
23147;DHT22;11742;53.532;-1.478;2022-10-16T06:23:45;14.10;65.60
23147;DHT22;11742;53.532;-1.478;2022-10-16T06:26:14;14.10;65.60
23147;DHT22;11742;53.532;-1.478;2022-10-16T06:28:40;14.10;65.60
23147;DHT22;11742;53.532;-1.478;2022-10-16T06:31:08;14.00;65.50
23147;DHT22;11742;53.532;-1.478;2022-10-16T06:33:34;14.00;65.50
23147;DHT22;11742;53.532;-1.478;2022-10-16T06:36:05;14.00;65.50
23147;DHT22;11742;53.532;-1.478;2022-10-16T06:38:31;14.00;65.60
23147;DHT22;11742;53.532;-1.478;2022-10-16T06:40:58;14.00;65.50
23147;DHT22;11742;53.532;-1.478;2022-10-16T06:43:24;14.00;65.50
23147;DHT22;11742;53.532;-1.478;2022-10-16T06:45:54;13.90;65.50
23147;DHT22;11742;53.532;-1.478;2022-10-16T06:48:21;13.90;65.50
23147;DHT22;11742;53.532;-1.478;2022-10-16T06:50:59;13.90;65.50
23147;DHT22;11742;53.532;-1.478;2022-10-16T06:53:27;13.90;65.80
23147;DHT22;11742;53.532;-1.478;2022-10-16T06:55:54;13.90;65.50
23147;DHT22;11742;53.532;-1.478;2022-10-16T06:58:19;13.90;65.50
23147;DHT22;11742;53.532;-1.478;2022-10-16T07:00:45;13.90;65.50
23147;DHT22;11742;53.532;-1.478;2022-10-16T07:03:11;13.90;65.50
23147;DHT22;11742;53.532;-1.478;2022-10-16T07:05:38;13.80;65.50
23147;DHT22;11742;53.532;-1.478;2022-10-16T07:08:04;13.80;65.50
23147;DHT22;11742;53.532;-1.478;2022-10-16T07:10:31;13.90;65.50
23147;DHT22;11742;53.532;-1.478;2022-10-16T07:12:57;13.80;65.40
23147;DHT22;11742;53.532;-1.478;2022-10-16T07:15:22;13.90;65.50
23147;DHT22;11742;53.532;-1.478;2022-10-16T07:17:48;13.90;65.50
23147;DHT22;11742;53.532;-1.478;2022-10-16T07:20:14;13.80;65.50
23147;DHT22;11742;53.532;-1.478;2022-10-16T07:22:39;13.80;65.50
23147;DHT22;11742;53.532;-1.478;2022-10-16T07:25:06;13.80;65.50
23147;DHT22;11742;53.532;-1.478;2022-10-16T07:27:31;13.80;65.50
23147;DHT22;11742;53.532;-1.478;2022-10-16T07:29:57;13.80;65.50
23147;DHT22;11742;53.532;-1.478;2022-10-16T07:32:22;13.80;65.60
23147;DHT22;11742;53.532;-1.478;2022-10-16T07:34:49;13.80;65.60
23147;DHT22;11742;53.532;-1.478;2022-10-16T07:37:14;13.80;65.60
23147;DHT22;11742;53.532;-1.478;2022-10-16T07:39:40;13.80;65.60
23147;DHT22;11742;53.532;-1.478;2022-10-16T07:42:05;13.80;65.70
23147;DHT22;11742;53.532;-1.478;2022-10-16T07:44:33;13.90;65.70
23147;DHT22;11742;53.532;-1.478;2022-10-16T07:46:58;13.90;65.70
23147;DHT22;11742;53.532;-1.478;2022-10-16T07:49:24;13.90;65.80
23147;DHT22;11742;53.532;-1.478;2022-10-16T07:51:50;13.90;65.90
23147;DHT22;11742;53.532;-1.478;2022-10-16T07:54:16;13.90;65.90
23147;DHT22;11742;53.532;-1.478;2022-10-16T07:56:41;14.00;66.00
23147;DHT22;11742;53.532;-1.478;2022-10-16T07:59:07;14.00;66.10
23147;DHT22;11742;53.532;-1.478;2022-10-16T08:01:32;14.00;66.20
23147;DHT22;11742;53.532;-1.478;2022-10-16T08:03:58;14.00;66.30
23147;DHT22;11742;53.532;-1.478;2022-10-16T08:06:24;14.10;66.40
23147;DHT22;11742;53.532;-1.478;2022-10-16T08:08:49;14.10;66.50
23147;DHT22;11742;53.532;-1.478;2022-10-16T08:11:15;14.10;66.50
23147;DHT22;11742;53.532;-1.478;2022-10-16T08:13:41;14.20;66.70
23147;DHT22;11742;53.532;-1.478;2022-10-16T08:16:07;14.20;66.80
23147;DHT22;11742;53.532;-1.478;2022-10-16T08:18:37;14.30;66.90
23147;DHT22;11742;53.532;-1.478;2022-10-16T08:21:04;14.30;66.90
23147;DHT22;11742;53.532;-1.478;2022-10-16T08:23:30;14.30;67.00
23147;DHT22;11742;53.532;-1.478;2022-10-16T08:26:01;14.40;67.10
23147;DHT22;11742;53.532;-1.478;2022-10-16T08:28:27;14.40;67.20
23147;DHT22;11742;53.532;-1.478;2022-10-16T08:30:53;14.40;67.20
23147;DHT22;11742;53.532;-1.478;2022-10-16T08:33:18;14.50;68.20
23147;DHT22;11742;53.532;-1.478;2022-10-16T08:35:53;14.50;67.40
23147;DHT22;11742;53.532;-1.478;2022-10-16T08:38:20;14.50;67.40
23147;DHT22;11742;53.532;-1.478;2022-10-16T08:40:46;14.60;67.50
23147;DHT22;11742;53.532;-1.478;2022-10-16T08:48:55;14.80;68.70
23147;DHT22;11742;53.532;-1.478;2022-10-16T08:51:34;14.80;67.80
23147;DHT22;11742;53.532;-1.478;2022-10-16T08:54:05;14.80;67.90
23147;DHT22;11742;53.532;-1.478;2022-10-16T08:56:31;14.90;67.90
23147;DHT22;11742;53.532;-1.478;2022-10-16T08:58:59;14.90;68.00
23147;DHT22;11742;53.532;-1.478;2022-10-16T09:01:37;15.00;68.00
23147;DHT22;11742;53.532;-1.478;2022-10-16T09:04:27;15.00;68.10
23147;DHT22;11742;53.532;-1.478;2022-10-16T09:06:57;15.10;68.20
23147;DHT22;11742;53.532;-1.478;2022-10-16T09:09:42;15.10;68.20
23147;DHT22;11742;53.532;-1.478;2022-10-16T09:12:32;15.20;68.30
23147;DHT22;11742;53.532;-1.478;2022-10-16T09:23:11;15.20;68.10
23147;DHT22;11742;53.532;-1.478;2022-10-16T09:25:39;15.30;68.10
23147;DHT22;11742;53.532;-1.478;2022-10-16T09:28:08;15.40;68.10
23147;DHT22;11742;53.532;-1.478;2022-10-16T09:30:35;15.40;68.10
23147;DHT22;11742;53.532;-1.478;2022-10-16T09:33:00;15.50;68.20
23147;DHT22;11742;53.532;-1.478;2022-10-16T09:35:48;15.60;68.30
23147;DHT22;11742;53.532;-1.478;2022-10-16T09:40:50;15.70;68.40
23147;DHT22;11742;53.532;-1.478;2022-10-16T09:43:26;15.80;68.40
23147;DHT22;11742;53.532;-1.478;2022-10-16T09:46:00;15.80;68.40
23147;DHT22;11742;53.532;-1.478;2022-10-16T09:48:47;15.90;68.40
23147;DHT22;11742;53.532;-1.478;2022-10-16T09:53:57;16.00;68.60
23147;DHT22;11742;53.532;-1.478;2022-10-16T09:56:29;16.10;68.60
23147;DHT22;11742;53.532;-1.478;2022-10-16T09:58:57;16.10;68.30
23147;DHT22;11742;53.532;-1.478;2022-10-16T10:01:30;16.10;68.10
23147;DHT22;11742;53.532;-1.478;2022-10-16T10:03:57;16.20;68.10
23147;DHT22;11742;53.532;-1.478;2022-10-16T10:06:33;16.20;68.10
23147;DHT22;11742;53.532;-1.478;2022-10-16T10:11:50;16.40;68.20
23147;DHT22;11742;53.532;-1.478;2022-10-16T10:14:37;16.40;68.10
23147;DHT22;11742;53.532;-1.478;2022-10-16T10:22:32;16.70;69.10
23147;DHT22;11742;53.532;-1.478;2022-10-16T10:30:25;16.80;68.40
23147;DHT22;11742;53.532;-1.478;2022-10-16T10:38:19;17.00;68.60
23147;DHT22;11742;53.532;-1.478;2022-10-16T10:46:04;17.30;68.80
23147;DHT22;11742;53.532;-1.478;2022-10-16T10:51:07;17.40;68.90
23147;DHT22;11742;53.532;-1.478;2022-10-16T10:53:41;17.50;69.00
23147;DHT22;11742;53.532;-1.478;2022-10-16T10:56:14;17.60;69.00
23147;DHT22;11742;53.532;-1.478;2022-10-16T10:58:54;17.60;69.00
23147;DHT22;11742;53.532;-1.478;2022-10-16T11:01:35;17.60;69.00
23147;DHT22;11742;53.532;-1.478;2022-10-16T11:06:48;17.80;69.10
23147;DHT22;11742;53.532;-1.478;2022-10-16T11:09:21;17.80;68.90
23147;DHT22;11742;53.532;-1.478;2022-10-16T11:11:56;17.90;68.90
23147;DHT22;11742;53.532;-1.478;2022-10-16T11:14:35;18.00;69.00
23147;DHT22;11742;53.532;-1.478;2022-10-16T11:17:23;18.00;68.90
23147;DHT22;11742;53.532;-1.478;2022-10-16T11:23:14;18.20;69.00
23147;DHT22;11742;53.532;-1.478;2022-10-16T11:25:36;18.20;69.00
23147;DHT22;11742;53.532;-1.478;2022-10-16T11:30:51;18.40;69.00
23147;DHT22;11742;53.532;-1.478;2022-10-16T11:33:27;18.40;69.00
23147;DHT22;11742;53.532;-1.478;2022-10-16T11:36:04;18.50;69.10
23147;DHT22;11742;53.532;-1.478;2022-10-16T11:41:14;18.60;69.10
23147;DHT22;11742;53.532;-1.478;2022-10-16T11:43:49;18.70;69.20
23147;DHT22;11742;53.532;-1.478;2022-10-16T11:46:21;18.80;69.30
23147;DHT22;11742;53.532;-1.478;2022-10-16T11:49:08;18.80;69.20
23147;DHT22;11742;53.532;-1.478;2022-10-16T11:51:48;18.90;69.30
23147;DHT22;11742;53.532;-1.478;2022-10-16T11:54:32;19.00;69.30
23147;DHT22;11742;53.532;-1.478;2022-10-16T11:57:05;19.00;69.30
23147;DHT22;11742;53.532;-1.478;2022-10-16T12:02:27;19.10;69.40
23147;DHT22;11742;53.532;-1.478;2022-10-16T12:05:09;19.20;69.40
23147;DHT22;11742;53.532;-1.478;2022-10-16T12:08:11;19.20;69.40
23147;DHT22;11742;53.532;-1.478;2022-10-16T12:10:39;19.30;69.40
23147;DHT22;11742;53.532;-1.478;2022-10-16T12:13:32;19.30;69.30
23147;DHT22;11742;53.532;-1.478;2022-10-16T12:16:27;19.40;69.40
23147;DHT22;11742;53.532;-1.478;2022-10-16T12:19:10;19.40;69.30
23147;DHT22;11742;53.532;-1.478;2022-10-16T12:21:37;19.40;69.30
23147;DHT22;11742;53.532;-1.478;2022-10-16T12:24:03;19.50;69.30
23147;DHT22;11742;53.532;-1.478;2022-10-16T12:26:33;19.50;69.30
23147;DHT22;11742;53.532;-1.478;2022-10-16T12:29:41;19.50;69.30
23147;DHT22;11742;53.532;-1.478;2022-10-16T12:32:33;19.60;69.30
23147;DHT22;11742;53.532;-1.478;2022-10-16T12:35:01;19.60;69.30
23147;DHT22;11742;53.532;-1.478;2022-10-16T12:37:34;19.60;69.30
23147;DHT22;11742;53.532;-1.478;2022-10-16T12:40:15;19.70;69.30
23147;DHT22;11742;53.532;-1.478;2022-10-16T12:42:42;19.70;69.30
23147;DHT22;11742;53.532;-1.478;2022-10-16T12:45:32;19.80;69.40
23147;DHT22;11742;53.532;-1.478;2022-10-16T12:48:04;19.80;69.40
23147;DHT22;11742;53.532;-1.478;2022-10-16T12:50:43;19.90;69.50
23147;DHT22;11742;53.532;-1.478;2022-10-16T12:53:21;19.90;69.50
23147;DHT22;11742;53.532;-1.478;2022-10-16T12:58:44;20.00;69.50
23147;DHT22;11742;53.532;-1.478;2022-10-16T13:03:53;20.00;69.40
23147;DHT22;11742;53.532;-1.478;2022-10-16T13:09:43;20.00;69.20
23147;DHT22;11742;53.532;-1.478;2022-10-16T13:14:44;20.10;69.00
23147;DHT22;11742;53.532;-1.478;2022-10-16T13:17:45;20.10;68.90
23147;DHT22;11742;53.532;-1.478;2022-10-16T13:23:20;20.10;68.70
23147;DHT22;11742;53.532;-1.478;2022-10-16T13:28:39;20.20;68.70
23147;DHT22;11742;53.532;-1.478;2022-10-16T13:31:05;20.20;68.50
23147;DHT22;11742;53.532;-1.478;2022-10-16T13:33:46;20.20;68.50
23147;DHT22;11742;53.532;-1.478;2022-10-16T13:36:25;20.20;68.30
23147;DHT22;11742;53.532;-1.478;2022-10-16T13:39:09;20.20;68.30
23147;DHT22;11742;53.532;-1.478;2022-10-16T13:41:36;20.20;68.10
23147;DHT22;11742;53.532;-1.478;2022-10-16T13:44:02;20.20;68.00
23147;DHT22;11742;53.532;-1.478;2022-10-16T13:46:27;20.20;68.00
23147;DHT22;11742;53.532;-1.478;2022-10-16T13:49:03;20.20;67.90
23147;DHT22;11742;53.532;-1.478;2022-10-16T13:51:31;20.20;67.80
23147;DHT22;11742;53.532;-1.478;2022-10-16T13:53:57;20.20;67.70
23147;DHT22;11742;53.532;-1.478;2022-10-16T13:56:27;20.20;67.60
23147;DHT22;11742;53.532;-1.478;2022-10-16T13:59:05;20.20;67.60
23147;DHT22;11742;53.532;-1.478;2022-10-16T14:01:40;20.20;67.50
23147;DHT22;11742;53.532;-1.478;2022-10-16T14:04:12;20.20;67.40
23147;DHT22;11742;53.532;-1.478;2022-10-16T14:06:44;20.20;67.30
23147;DHT22;11742;53.532;-1.478;2022-10-16T14:09:26;20.20;67.30
23147;DHT22;11742;53.532;-1.478;2022-10-16T14:12:02;20.20;67.20
23147;DHT22;11742;53.532;-1.478;2022-10-16T14:14:43;20.20;67.10
23147;DHT22;11742;53.532;-1.478;2022-10-16T14:17:16;20.20;67.10
23147;DHT22;11742;53.532;-1.478;2022-10-16T14:19:47;20.20;67.00
23147;DHT22;11742;53.532;-1.478;2022-10-16T14:22:28;20.20;67.00
23147;DHT22;11742;53.532;-1.478;2022-10-16T14:24:55;20.20;67.00
23147;DHT22;11742;53.532;-1.478;2022-10-16T14:27:31;20.20;66.90
23147;DHT22;11742;53.532;-1.478;2022-10-16T14:30:18;20.20;66.90
23147;DHT22;11742;53.532;-1.478;2022-10-16T14:33:05;20.20;66.90
23147;DHT22;11742;53.532;-1.478;2022-10-16T14:35:34;20.20;66.90
23147;DHT22;11742;53.532;-1.478;2022-10-16T14:38:01;20.10;66.80
23147;DHT22;11742;53.532;-1.478;2022-10-16T14:40:33;20.10;66.80
23147;DHT22;11742;53.532;-1.478;2022-10-16T14:43:01;20.20;66.90
23147;DHT22;11742;53.532;-1.478;2022-10-16T14:45:34;20.20;66.80
23147;DHT22;11742;53.532;-1.478;2022-10-16T14:48:04;20.20;66.80
23147;DHT22;11742;53.532;-1.478;2022-10-16T14:50:31;20.10;66.70
23147;DHT22;11742;53.532;-1.478;2022-10-16T14:52:58;20.20;66.70
23147;DHT22;11742;53.532;-1.478;2022-10-16T14:55:24;20.20;66.80
23147;DHT22;11742;53.532;-1.478;2022-10-16T14:57:50;20.10;66.60
23147;DHT22;11742;53.532;-1.478;2022-10-16T15:00:20;20.10;66.60
23147;DHT22;11742;53.532;-1.478;2022-10-16T15:02:48;20.20;67.50
23147;DHT22;11742;53.532;-1.478;2022-10-16T15:05:26;20.20;66.60
23147;DHT22;11742;53.532;-1.478;2022-10-16T15:07:53;20.10;66.50
23147;DHT22;11742;53.532;-1.478;2022-10-16T15:10:24;20.10;66.50
23147;DHT22;11742;53.532;-1.478;2022-10-16T15:12:50;20.10;66.40
23147;DHT22;11742;53.532;-1.478;2022-10-16T15:15:39;20.10;66.40
23147;DHT22;11742;53.532;-1.478;2022-10-16T15:18:07;20.10;66.30
23147;DHT22;11742;53.532;-1.478;2022-10-16T15:20:35;20.10;66.30
23147;DHT22;11742;53.532;-1.478;2022-10-16T15:23:02;20.10;66.30
23147;DHT22;11742;53.532;-1.478;2022-10-16T15:25:43;20.10;66.30
23147;DHT22;11742;53.532;-1.478;2022-10-16T15:28:09;20.10;66.30
23147;DHT22;11742;53.532;-1.478;2022-10-16T15:30:36;20.10;66.30
23147;DHT22;11742;53.532;-1.478;2022-10-16T15:33:03;20.10;66.30
23147;DHT22;11742;53.532;-1.478;2022-10-16T15:35:29;20.10;66.20
23147;DHT22;11742;53.532;-1.478;2022-10-16T15:37:56;20.10;66.20
23147;DHT22;11742;53.532;-1.478;2022-10-16T15:40:22;20.10;66.10
23147;DHT22;11742;53.532;-1.478;2022-10-16T15:42:49;20.10;66.10
23147;DHT22;11742;53.532;-1.478;2022-10-16T15:45:15;20.10;66.00
23147;DHT22;11742;53.532;-1.478;2022-10-16T15:47:42;20.10;66.00
23147;DHT22;11742;53.532;-1.478;2022-10-16T15:50:10;20.10;66.00
23147;DHT22;11742;53.532;-1.478;2022-10-16T15:52:37;20.10;65.90
23147;DHT22;11742;53.532;-1.478;2022-10-16T15:55:08;20.00;65.70
23147;DHT22;11742;53.532;-1.478;2022-10-16T15:57:35;20.00;64.30
23147;DHT22;11742;53.532;-1.478;2022-10-16T16:00:07;19.90;62.90
23147;DHT22;11742;53.532;-1.478;2022-10-16T16:02:33;19.80;60.60
23147;DHT22;11742;53.532;-1.478;2022-10-16T16:04:59;19.60;60.00
23147;DHT22;11742;53.532;-1.478;2022-10-16T16:07:24;19.50;60.30
23147;DHT22;11742;53.532;-1.478;2022-10-16T16:09:50;19.40;60.70
23147;DHT22;11742;53.532;-1.478;2022-10-16T16:12:16;19.40;61.10
23147;DHT22;11742;53.532;-1.478;2022-10-16T16:14:41;19.40;61.50
23147;DHT22;11742;53.532;-1.478;2022-10-16T16:17:08;19.40;61.80
23147;DHT22;11742;53.532;-1.478;2022-10-16T16:19:33;19.40;62.00
23147;DHT22;11742;53.532;-1.478;2022-10-16T16:21:59;19.40;62.20
23147;DHT22;11742;53.532;-1.478;2022-10-16T16:24:25;19.40;62.40
23147;DHT22;11742;53.532;-1.478;2022-10-16T16:26:50;19.40;62.60
23147;DHT22;11742;53.532;-1.478;2022-10-16T16:29:16;19.40;62.80
23147;DHT22;11742;53.532;-1.478;2022-10-16T16:31:42;19.40;62.90
23147;DHT22;11742;53.532;-1.478;2022-10-16T16:34:08;19.40;63.10
23147;DHT22;11742;53.532;-1.478;2022-10-16T16:36:35;19.40;63.20
23147;DHT22;11742;53.532;-1.478;2022-10-16T16:39:01;19.30;63.20
23147;DHT22;11742;53.532;-1.478;2022-10-16T16:41:28;19.40;63.40
23147;DHT22;11742;53.532;-1.478;2022-10-16T16:44:00;19.40;63.50
23147;DHT22;11742;53.532;-1.478;2022-10-16T16:46:27;19.30;63.50
23147;DHT22;11742;53.532;-1.478;2022-10-16T16:48:52;19.30;63.60
23147;DHT22;11742;53.532;-1.478;2022-10-16T16:51:21;19.30;63.60